Time;durP1;ratioP1;P1;durP2;ratioP2;P2;SDS_P1;SDS_P2;PMS_P1;PMS_P2;Temp;Humidity;BMP_temperature;BMP_pressure;BME280_temperature;BME280_humidity;BME280_pressure;Samples;Min_cycle;Max_cycle;Signal;HPM_P1;HPM_P2
2023/03/29 00:01:20;;;;;;;1999.90;999.90;;;5.80;99.90;;;;;;5051492;28;20439;-72
2023/03/29 00:03:48;;;;;;;1999.90;999.90;;;5.60;99.90;;;;;;5048438;28;20437;-72
2023/03/29 00:06:21;;;;;;;1999.90;999.90;;;6.00;99.90;;;;;;5048603;28;20487;-70
2023/03/29 00:08:49;;;;;;;1999.90;999.90;;;6.20;99.90;;;;;;5044248;28;20919;-70
2023/03/29 00:11:16;;;;;;;1999.90;999.90;;;6.50;99.90;;;;;;5051990;28;20472;-72
2023/03/29 00:13:45;;;;;;;1999.90;999.90;;;6.50;99.90;;;;;;5050612;28;20466;-72
2023/03/29 00:16:12;;;;;;;1999.90;999.90;;;6.70;99.90;;;;;;5047900;28;20441;-75
2023/03/29 00:18:39;;;;;;;1999.90;999.90;;;7.00;98.00;;;;;;5048090;28;20425;-75
2023/03/29 00:21:06;;;;;;;1999.90;999.90;;;7.20;98.30;;;;;;5052671;28;20499;-73
2023/03/29 00:23:33;;;;;;;1999.90;999.90;;;7.10;98.50;;;;;;5046265;28;20433;-72
2023/03/29 00:26:00;;;;;;;1999.90;999.90;;;7.30;96.40;;;;;;5046872;28;20433;-75
2023/03/29 00:28:27;;;;;;;1999.90;999.90;;;7.60;96.20;;;;;;5050463;28;20429;-71
2023/03/29 00:31:04;;;;;;;1999.90;999.90;;;7.50;97.30;;;;;;5048652;28;20497;-73
2023/03/29 00:33:30;;;;;;;1999.90;999.90;;;7.30;98.80;;;;;;5049150;28;20433;-73
2023/03/29 00:35:57;;;;;;;1999.90;999.90;;;7.20;97.40;;;;;;5045968;28;20491;-71
2023/03/29 00:38:24;;;;;;;1999.90;999.90;;;7.30;96.90;;;;;;5045990;28;20474;-76
2023/03/29 00:40:50;;;;;;;1999.90;999.90;;;7.30;96.50;;;;;;5050331;28;20453;-73
2023/03/29 00:43:17;;;;;;;1999.90;999.90;;;7.40;96.60;;;;;;5051128;28;20433;-74
2023/03/29 00:45:44;;;;;;;1999.90;999.90;;;7.30;96.50;;;;;;5050256;28;20436;-76
2023/03/29 00:48:15;;;;;;;1999.90;999.90;;;7.30;97.40;;;;;;5049922;28;20433;-73
2023/03/29 00:50:46;;;;;;;1999.90;999.90;;;7.20;97.80;;;;;;5050496;28;20437;-73
2023/03/29 00:53:17;;;;;;;1999.90;999.90;;;7.10;98.40;;;;;;5045115;28;20454;-73
2023/03/29 00:55:51;;;;;;;1999.90;999.90;;;6.90;99.70;;;;;;5050599;28;21002;-71
2023/03/29 00:58:22;;;;;;;1999.90;999.90;;;6.60;99.90;;;;;;5044629;28;20485;-76
2023/03/29 01:00:56;;;;;;;1999.90;999.90;;;6.60;99.90;;;;;;5043851;28;20429;-74
2023/03/29 01:03:27;;;;;;;1999.90;999.90;;;6.60;99.90;;;;;;5050185;28;20495;-71
2023/03/29 01:05:58;;;;;;;1999.90;999.90;;;6.70;99.90;;;;;;5043289;28;20448;-73
2023/03/29 01:08:29;;;;;;;1999.90;999.90;;;6.80;99.90;;;;;;5049075;28;20425;-74
2023/03/29 01:11:01;;;;;;;1999.90;999.90;;;6.80;99.90;;;;;;5048901;28;20429;-73
2023/03/29 01:13:35;;;;;;;1999.90;999.90;;;6.70;99.90;;;;;;5042246;28;20495;-73
2023/03/29 01:16:04;;;;;;;1999.90;999.90;;;6.60;99.90;;;;;;5044163;28;20499;-72
2023/03/29 01:18:32;;;;;;;1999.90;999.90;;;6.60;99.90;;;;;;5034308;28;20842;-74
2023/03/29 01:21:15;;;;;;;1999.90;999.90;;;6.70;99.90;;;;;;5047061;28;21001;-72
2023/03/29 01:23:57;;;;;;;1999.90;999.90;;;6.80;99.90;;;;;;5048200;28;20913;-73
2023/03/29 01:26:30;;;;;;;1999.90;999.90;;;6.90;99.90;;;;;;5042656;28;20435;-73
2023/03/29 01:29:03;;;;;;;1999.90;999.90;;;6.90;99.80;;;;;;5040527;28;20429;-73
2023/03/29 01:31:34;;;;;;;1999.90;999.90;;;6.90;99.90;;;;;;5049658;28;20486;-73
2023/03/29 01:34:05;;;;;;;1999.90;999.90;;;6.90;99.90;;;;;;5042203;28;20990;-74
2023/03/29 01:36:39;;;;;;;1999.90;999.90;;;6.80;99.90;;;;;;5051318;28;20460;-73
2023/03/29 01:39:07;;;;;;;1999.90;999.90;;;6.80;99.90;;;;;;5041975;28;20426;-71
2023/03/29 01:41:41;;;;;;;1999.90;999.90;;;6.80;99.90;;;;;;5044406;28;20432;-73
2023/03/29 01:44:17;;;;;;;1999.90;999.90;;;6.80;99.90;;;;;;5042978;28;20434;-73
2023/03/29 01:46:46;;;;;;;1999.90;999.90;;;6.80;99.90;;;;;;5049954;28;20467;-72
2023/03/29 01:49:17;;;;;;;1999.90;999.90;;;6.70;99.90;;;;;;5047553;28;20486;-73
2023/03/29 01:51:51;;;;;;;1999.90;999.90;;;6.60;99.90;;;;;;5040816;28;20482;-74
2023/03/29 01:54:21;;;;;;;1999.90;999.90;;;6.60;99.90;;;;;;5043138;28;20425;-73
2023/03/29 01:56:51;;;;;;;1999.90;999.90;;;6.50;99.90;;;;;;5050431;28;20433;-75
2023/03/29 01:59:22;;;;;;;1999.90;999.90;;;6.50;99.90;;;;;;5044931;28;20488;-72
2023/03/29 02:01:54;;;;;;;1999.90;999.90;;;6.40;99.90;;;;;;5046680;28;20443;-73
2023/03/29 02:04:27;;;;;;;1999.90;999.90;;;6.30;99.90;;;;;;5046067;28;20439;-74
2023/03/29 02:06:55;;;;;;;1999.90;999.90;;;6.30;99.90;;;;;;5048392;28;20476;-73
2023/03/29 02:09:22;;;;;;;1999.90;999.90;;;6.40;99.90;;;;;;5047707;28;20421;-73
2023/03/29 02:11:51;;;;;;;1999.90;999.90;;;6.30;99.90;;;;;;5050065;28;20483;-73
2023/03/29 02:14:20;;;;;;;1999.90;999.90;;;6.10;99.90;;;;;;5048363;28;20430;-72
2023/03/29 02:16:48;;;;;;;1999.90;999.90;;;6.10;99.90;;;;;;5046636;28;20440;-71
2023/03/29 02:19:15;;;;;;;1999.90;999.90;;;6.30;99.90;;;;;;5051924;28;20461;-74
2023/03/29 02:21:47;;;;;;;1999.90;999.90;;;6.30;99.90;;;;;;5052025;28;21150;-73
2023/03/29 02:24:17;;;;;;;1999.90;999.90;;;6.30;99.90;;;;;;5054255;28;20933;-69
2023/03/29 02:26:44;;;;;;;1999.90;999.90;;;6.50;99.90;;;;;;5047590;28;20502;-72
2023/03/29 02:29:11;;;;;;;1999.90;999.90;;;6.50;99.90;;;;;;5052932;28;20429;-71
2023/03/29 02:31:44;;;;;;;1999.90;999.90;;;6.50;99.90;;;;;;5053320;28;20437;-72
2023/03/29 02:34:18;;;;;;;1999.90;999.90;;;6.40;99.90;;;;;;5049131;28;20983;-72
2023/03/29 02:36:48;;;;;;;1999.90;999.90;;;6.40;99.90;;;;;;5051945;28;20507;-72
2023/03/29 02:39:17;;;;;;;1999.90;999.90;;;6.20;99.90;;;;;;5048988;28;20489;-72
2023/03/29 02:41:47;;;;;;;1999.90;999.90;;;6.20;99.90;;;;;;5052084;28;20993;-72
2023/03/29 02:44:18;;;;;;;1999.90;999.90;;;6.10;99.90;;;;;;5054110;28;20433;-71
2023/03/29 02:46:50;;;;;;;1999.90;999.90;;;6.30;99.90;;;;;;5043353;28;20454;-71
2023/03/29 02:49:17;;;;;;;1999.90;999.90;;;6.40;99.90;;;;;;5047247;28;20487;-73
2023/03/29 02:51:46;;;;;;;1999.90;999.90;;;6.80;99.90;;;;;;5052275;28;20441;-75
2023/03/29 02:54:17;;;;;;;1999.90;999.90;;;6.80;99.90;;;;;;5049126;28;20433;-73
2023/03/29 02:56:45;;;;;;;1999.90;999.90;;;6.70;99.90;;;;;;5044967;28;20439;-73
2023/03/29 02:59:12;;;;;;;1999.90;999.90;;;6.60;99.90;;;;;;5050849;28;20984;-73
2023/03/29 03:01:41;;;;;;;1999.90;999.90;;;6.50;99.90;;;;;;5045110;28;20446;-74
2023/03/29 03:04:09;;;;;;;1999.90;999.90;;;6.50;99.90;;;;;;5047568;28;20439;-69
2023/03/29 03:06:36;;;;;;;1999.90;999.90;;;6.40;99.90;;;;;;5052323;28;20468;-74
2023/03/29 03:09:03;;;;;;;1999.90;999.90;;;6.80;99.90;;;;;;5051903;28;20433;-71
2023/03/29 03:11:30;;;;;;;1999.90;999.90;;;6.30;99.90;;;;;;5047718;28;20435;-73
2023/03/29 03:13:57;;;;;;;1999.90;999.90;;;6.30;99.90;;;;;;5051068;28;20435;-73
2023/03/29 03:16:24;;;;;;;1999.90;999.90;;;6.20;99.90;;;;;;5045573;28;20507;-74
2023/03/29 03:18:52;;;;;;;1999.90;999.90;;;6.20;99.90;;;;;;5051900;28;20466;-70
2023/03/29 03:21:20;;;;;;;1999.90;999.90;;;6.00;99.90;;;;;;5055159;28;20429;-72
2023/03/29 03:23:48;;;;;;;1999.90;999.90;;;5.90;99.90;;;;;;5049578;28;20437;-72
2023/03/29 03:26:16;;;;;;;1999.90;999.90;;;5.90;99.90;;;;;;5044029;28;20483;-71
2023/03/29 03:28:44;;;;;;;1999.90;999.90;;;6.00;99.90;;;;;;5047354;28;20434;-72
2023/03/29 03:31:12;;;;;;;1999.90;999.90;;;6.00;99.90;;;;;;5048352;28;20487;-72
2023/03/29 03:33:39;;;;;;;1999.90;999.90;;;5.90;99.90;;;;;;5054422;28;20507;-72
2023/03/29 03:36:07;;;;;;;1999.90;999.90;;;5.90;99.90;;;;;;5053578;28;20429;-74
2023/03/29 03:38:37;;;;;;;1999.90;999.90;;;5.90;99.90;;;;;;5052996;28;20429;-72
2023/03/29 03:41:05;;;;;;;1999.90;999.90;;;5.90;99.90;;;;;;5053893;28;20435;-73
2023/03/29 03:43:32;;;;;;;1999.90;999.90;;;5.90;99.90;;;;;;5046134;28;20938;-73
2023/03/29 03:45:59;;;;;;;1999.90;999.90;;;5.90;99.90;;;;;;5041150;28;20451;-71
2023/03/29 03:48:26;;;;;;;1999.90;999.90;;;5.90;99.90;;;;;;5053090;28;20502;-72
2023/03/29 03:50:55;;;;;;;1999.90;999.90;;;5.90;99.90;;;;;;5050889;28;20429;-72
2023/03/29 03:53:24;;;;;;;1999.90;999.90;;;5.90;99.90;;;;;;5052194;28;20945;-72
2023/03/29 03:55:54;;;;;;;1999.90;999.90;;;5.80;99.90;;;;;;5048296;28;20433;-72
2023/03/29 03:58:21;;;;;;;1999.90;999.90;;;6.00;99.90;;;;;;5051693;28;20847;-77
2023/03/29 04:00:50;;;;;;;1999.90;999.90;;;5.90;99.90;;;;;;5050946;28;20503;-70
2023/03/29 04:03:17;;;;;;;1999.90;999.90;;;5.90;99.90;;;;;;5051169;28;20491;-72
2023/03/29 04:05:46;;;;;;;1999.90;999.90;;;5.80;99.90;;;;;;5050183;28;20918;-72
2023/03/29 04:08:13;;;;;;;1999.90;999.90;;;5.70;99.90;;;;;;5051741;28;20430;-71
2023/03/29 04:10:40;;;;;;;1999.90;999.90;;;5.90;99.90;;;;;;5050788;28;20582;-72
2023/03/29 04:13:08;;;;;;;1999.90;999.90;;;5.90;99.90;;;;;;5051873;28;20823;-73
2023/03/29 04:15:37;;;;;;;1999.90;999.90;;;5.90;99.90;;;;;;5045689;28;20442;-72
2023/03/29 04:18:04;;;;;;;1999.90;999.90;;;5.90;99.90;;;;;;5045876;28;20440;-72
2023/03/29 04:20:30;;;;;;;1999.90;999.90;;;5.90;99.90;;;;;;5050521;28;20926;-73
2023/03/29 04:22:57;;;;;;;1999.90;999.90;;;6.00;99.90;;;;;;5049404;28;20433;-73
2023/03/29 04:25:24;;;;;;;1999.90;999.90;;;5.90;99.90;;;;;;5042241;28;20496;-73
2023/03/29 04:27:51;;;;;;;1999.90;999.90;;;5.90;99.90;;;;;;5050266;28;20432;-72
2023/03/29 04:30:20;;;;;;;1999.90;999.90;;;5.90;99.90;;;;;;5051081;28;20459;-72
2023/03/29 04:32:47;;;;;;;1999.90;999.90;;;5.80;99.90;;;;;;5051554;28;20429;-73
2023/03/29 04:35:19;;;;;;;1999.90;999.90;;;5.90;99.90;;;;;;5041290;28;20435;-74
2023/03/29 04:37:47;;;;;;;1999.90;999.90;;;5.80;99.90;;;;;;5038466;28;20434;-72
2023/03/29 04:40:14;;;;;;;1999.90;999.90;;;5.80;99.90;;;;;;5041501;28;20489;-75
2023/03/29 04:42:43;;;;;;;1999.90;999.90;;;6.00;99.90;;;;;;5048322;28;20441;-72
2023/03/29 04:45:12;;;;;;;1999.90;999.90;;;6.00;99.90;;;;;;5035047;28;20435;-71
2023/03/29 04:47:40;;;;;;;1999.90;999.90;;;6.00;99.90;;;;;;5041880;28;20435;-71
2023/03/29 04:50:08;;;;;;;1999.90;999.90;;;5.90;99.90;;;;;;5049390;28;20464;-72
2023/03/29 04:52:35;;;;;;;1999.90;999.90;;;5.80;99.90;;;;;;5039043;28;20446;-71
2023/03/29 04:55:03;;;;;;;1999.90;999.90;;;5.90;99.90;;;;;;5048392;28;20441;-71
2023/03/29 04:57:30;;;;;;;1999.90;999.90;;;5.90;99.90;;;;;;5050606;28;20437;-71
2023/03/29 04:59:57;;;;;;;1999.90;999.90;;;6.00;99.90;;;;;;5050529;28;20483;-73
2023/03/29 05:02:23;;;;;;;1999.90;999.90;;;5.90;99.90;;;;;;5051097;28;20804;-72
2023/03/29 05:04:52;;;;;;;1999.90;999.90;;;5.80;99.90;;;;;;5048044;28;20436;-69
2023/03/29 05:07:19;;;;;;;1999.90;999.90;;;5.90;99.90;;;;;;5045831;28;20440;-74
2023/03/29 05:09:46;;;;;;;1999.90;999.90;;;5.80;99.90;;;;;;5048738;28;20432;-69
2023/03/29 05:12:13;;;;;;;1999.90;999.90;;;5.70;99.90;;;;;;5050454;28;20437;-69
2023/03/29 05:14:39;;;;;;;1999.90;999.90;;;5.80;99.90;;;;;;5043123;28;20470;-72
2023/03/29 05:17:06;;;;;;;1999.90;999.90;;;5.90;99.90;;;;;;5043574;28;20440;-72
2023/03/29 05:19:35;;;;;;;1999.90;999.90;;;6.00;99.90;;;;;;5046514;28;20429;-73
2023/03/29 05:22:03;;;;;;;1999.90;999.90;;;6.20;99.90;;;;;;5048594;28;20503;-73
2023/03/29 05:24:30;;;;;;;1999.90;999.90;;;6.10;99.90;;;;;;5045354;28;20435;-72
2023/03/29 05:26:56;;;;;;;1999.90;999.90;;;6.20;99.90;;;;;;5044745;28;20467;-73
2023/03/29 05:29:23;;;;;;;1999.90;999.90;;;6.30;99.90;;;;;;5050531;28;20974;-73
2023/03/29 05:31:51;;;;;;;1999.90;999.90;;;6.30;99.90;;;;;;5050697;28;20435;-74
2023/03/29 05:34:18;;;;;;;1999.90;999.90;;;6.20;99.90;;;;;;5040824;28;20434;-71
2023/03/29 05:36:45;;;;;;;1999.90;999.90;;;6.30;99.90;;;;;;5043324;28;20429;-71
2023/03/29 05:39:14;;;;;;;1999.90;999.90;;;6.40;99.90;;;;;;5048788;28;20425;-71
2023/03/29 05:41:41;;;;;;;1999.90;999.90;;;6.30;99.90;;;;;;5043531;28;20854;-72
2023/03/29 05:44:08;;;;;;;1999.90;999.90;;;6.20;99.90;;;;;;5047597;28;20437;-72
2023/03/29 05:46:40;;;;;;;1999.90;999.90;;;6.10;99.90;;;;;;5041902;28;20511;-75
2023/03/29 05:49:07;;;;;;;1999.90;999.90;;;6.10;99.90;;;;;;5049307;28;20930;-72
2023/03/29 05:51:34;;;;;;;1999.90;999.90;;;6.20;99.90;;;;;;5045263;28;20867;-74
2023/03/29 05:54:01;;;;;;;1999.90;999.90;;;6.10;99.90;;;;;;5050837;28;20972;-71
2023/03/29 05:56:29;;;;;;;1999.90;999.90;;;6.10;99.90;;;;;;5046360;28;20788;-72
2023/03/29 05:58:57;;;;;;;1999.90;999.90;;;6.20;99.90;;;;;;5043494;28;21786;-72
2023/03/29 06:01:24;;;;;;;1999.90;999.90;;;6.20;99.90;;;;;;5050351;28;20444;-72
2023/03/29 06:03:52;;;;;;;1999.90;999.90;;;6.30;99.90;;;;;;5048434;28;20425;-70
2023/03/29 06:06:20;;;;;;;1999.90;999.90;;;6.50;99.90;;;;;;5043954;28;20992;-74
2023/03/29 06:08:47;;;;;;;1999.90;999.90;;;6.50;99.90;;;;;;5049290;28;20448;-75
2023/03/29 06:11:14;;;;;;;1999.90;999.90;;;6.50;99.90;;;;;;5050280;28;20874;-76
2023/03/29 06:13:42;;;;;;;1999.90;999.90;;;6.40;99.90;;;;;;5049013;28;20445;-75
2023/03/29 06:16:11;;;;;;;1999.90;999.90;;;6.40;99.90;;;;;;5043248;28;20473;-73
2023/03/29 06:18:39;;;;;;;1999.90;999.90;;;6.60;99.90;;;;;;5053708;28;20439;-69
2023/03/29 06:21:08;;;;;;;1999.90;999.90;;;6.60;99.90;;;;;;5054369;28;20461;-73
2023/03/29 06:23:35;;;;;;;1999.90;999.90;;;6.80;99.90;;;;;;5053035;28;20441;-73
2023/03/29 06:26:02;;;;;;;1999.90;999.90;;;6.90;99.90;;;;;;5053105;28;20431;-71
2023/03/29 06:28:28;;;;;;;1999.90;999.90;;;7.00;99.90;;;;;;5053462;28;20433;-72
2023/03/29 06:31:00;;;;;;;1999.90;999.90;;;7.10;99.90;;;;;;5046735;28;20451;-71
2023/03/29 06:33:28;;;;;;;1999.90;999.90;;;7.10;99.90;;;;;;5045635;28;20438;-72
2023/03/29 06:35:54;;;;;;;1999.90;999.90;;;7.20;99.90;;;;;;5045478;28;20518;-72
2023/03/29 06:38:21;;;;;;;1999.90;999.90;;;7.30;99.90;;;;;;5041807;28;20478;-74
2023/03/29 06:40:48;;;;;;;1999.90;999.90;;;7.40;99.90;;;;;;5051465;28;20765;-73
2023/03/29 06:43:14;;;;;;;1999.90;999.90;;;7.20;99.90;;;;;;5046844;28;20482;-70
2023/03/29 06:45:41;;;;;;;1999.90;999.90;;;7.40;99.90;;;;;;5045435;28;20477;-72
2023/03/29 06:48:10;;;;;;;1999.90;999.90;;;7.30;99.90;;;;;;5052389;28;20437;-71
2023/03/29 06:50:37;;;;;;;1999.90;999.90;;;7.50;99.90;;;;;;5046731;28;20466;-78
2023/03/29 06:53:04;;;;;;;1999.90;999.90;;;7.60;99.90;;;;;;5050469;28;20433;-75
2023/03/29 06:55:48;;;;;;;1999.90;999.90;;;7.70;99.90;;;;;;5049942;28;20922;-72
2023/03/29 06:58:15;;;;;;;1999.90;999.90;;;7.70;99.90;;;;;;5041182;28;20429;-74
2023/03/29 07:00:42;;;;;;;1999.90;999.90;;;7.80;99.90;;;;;;5047757;28;20432;-72
2023/03/29 07:03:13;;;;;;;1999.90;999.90;;;8.00;99.90;;;;;;5046370;28;20425;-73
2023/03/29 07:05:40;;;;;;;1999.90;999.90;;;7.90;99.90;;;;;;5045741;28;20428;-72
2023/03/29 07:08:15;;;;;;;1999.90;999.90;;;8.00;99.90;;;;;;5049803;28;20516;-71
2023/03/29 07:10:44;;;;;;;1999.90;999.90;;;7.90;99.90;;;;;;5050504;28;20946;-71
2023/03/29 07:13:12;;;;;;;1999.90;999.90;;;7.80;99.90;;;;;;5041882;28;22020;-70
2023/03/29 07:15:39;;;;;;;1999.90;999.90;;;7.70;99.90;;;;;;5049841;28;20459;-73
2023/03/29 07:18:07;;;;;;;1999.90;999.90;;;7.60;99.90;;;;;;5040341;28;20498;-71
2023/03/29 07:20:37;;;;;;;1999.90;999.90;;;7.60;99.90;;;;;;5042754;28;20430;-71
2023/03/29 07:23:04;;;;;;;1999.90;999.90;;;7.70;99.90;;;;;;5053220;28;20850;-71
2023/03/29 07:25:31;;;;;;;1999.90;999.90;;;7.80;99.90;;;;;;5047089;28;21096;-70
2023/03/29 07:27:57;;;;;;;1999.90;999.90;;;7.70;99.90;;;;;;5050800;28;20432;-73
2023/03/29 07:30:28;;;;;;;1999.90;999.90;;;7.60;99.90;;;;;;5042454;28;20427;-73
2023/03/29 07:32:57;;;;;;;1999.90;999.90;;;7.60;99.90;;;;;;5051384;28;20437;-68
2023/03/29 07:35:25;;;;;;;1999.90;999.90;;;7.80;99.90;;;;;;5052544;28;20425;-75
2023/03/29 07:37:54;;;;;;;1999.90;999.90;;;7.80;99.90;;;;;;5051337;28;20433;-69
2023/03/29 07:40:22;;;;;;;1999.90;999.90;;;7.80;99.90;;;;;;5041027;28;20516;-71
2023/03/29 07:42:51;;;;;;;1999.90;999.90;;;7.80;99.90;;;;;;5052729;28;20516;-73
2023/03/29 07:45:20;;;;;;;1999.90;999.90;;;7.90;99.90;;;;;;5050545;28;21456;-74
2023/03/29 07:47:47;;;;;;;1999.90;999.90;;;7.90;99.90;;;;;;5047173;28;20425;-71
2023/03/29 07:50:15;;;;;;;1999.90;999.90;;;8.00;99.90;;;;;;5050408;28;20427;-75
2023/03/29 07:52:43;;;;;;;1999.90;999.90;;;8.10;99.90;;;;;;5051571;28;20839;-71
2023/03/29 07:55:13;;;;;;;1999.90;999.90;;;8.10;99.90;;;;;;5045691;28;20432;-78
2023/03/29 07:57:39;;;;;;;1999.90;999.90;;;8.00;99.90;;;;;;5052056;28;20506;-71
2023/03/29 08:00:14;;;;;;;1999.90;999.90;;;8.10;99.90;;;;;;5051492;28;20467;-74
2023/03/29 08:02:43;;;;;;;1999.90;999.90;;;8.10;99.90;;;;;;5045413;28;20935;-72
2023/03/29 08:05:11;;;;;;;1999.90;999.90;;;8.00;99.90;;;;;;5040757;28;20440;-72
2023/03/29 08:07:39;;;;;;;1999.90;999.90;;;7.90;99.90;;;;;;5044295;28;20465;-72
2023/03/29 08:10:07;;;;;;;1999.90;999.90;;;8.10;99.90;;;;;;5043852;28;20472;-72
2023/03/29 08:12:36;;;;;;;1999.90;999.90;;;8.20;99.90;;;;;;5047197;28;20443;-70
2023/03/29 08:15:04;;;;;;;1999.90;999.90;;;8.10;99.90;;;;;;5050547;28;20502;-72
2023/03/29 08:17:31;;;;;;;1999.90;999.90;;;8.30;99.90;;;;;;5047015;28;20439;-71
2023/03/29 08:19:57;;;;;;;1999.90;999.90;;;8.20;99.90;;;;;;5047580;28;20436;-72
2023/03/29 08:22:24;;;;;;;1999.90;999.90;;;8.50;99.90;;;;;;5041584;28;20433;-74
2023/03/29 08:24:51;;;;;;;1999.90;999.90;;;8.50;99.90;;;;;;5044318;28;20458;-71
2023/03/29 08:27:18;;;;;;;1999.90;999.90;;;8.50;99.90;;;;;;5042275;28;20543;-76
2023/03/29 08:29:46;;;;;;;1999.90;999.90;;;8.60;99.90;;;;;;5043351;28;20433;-75
2023/03/29 08:32:13;;;;;;;1999.90;999.90;;;8.70;99.90;;;;;;5043274;28;20429;-73
2023/03/29 08:34:39;;;;;;;1999.90;999.90;;;8.80;99.90;;;;;;5048929;28;20463;-71
2023/03/29 08:37:07;;;;;;;1999.90;999.90;;;8.60;99.90;;;;;;5044311;28;20975;-71
2023/03/29 08:39:34;;;;;;;1999.90;999.90;;;8.70;99.90;;;;;;5048868;28;20852;-73
2023/03/29 08:42:17;;;;;;;1999.90;999.90;;;8.80;99.90;;;;;;5049583;28;20487;-75
2023/03/29 08:44:56;;;;;;;1999.90;999.90;;;8.80;99.90;;;;;;5048416;28;20445;-78
2023/03/29 08:47:34;;;;;;;1999.90;999.90;;;9.00;99.90;;;;;;5045599;28;20473;-73
2023/03/29 08:50:01;;;;;;;1999.90;999.90;;;9.20;99.90;;;;;;5046843;28;20443;-73
2023/03/29 08:52:34;;;;;;;1999.90;999.90;;;9.30;99.90;;;;;;5040371;28;20522;-72
2023/03/29 08:55:04;;;;;;;1999.90;999.90;;;9.30;99.90;;;;;;5043706;28;20436;-74
2023/03/29 08:57:35;;;;;;;1999.90;999.90;;;9.30;99.90;;;;;;5044048;28;20491;-73
2023/03/29 09:00:09;;;;;;;1999.90;999.90;;;9.40;99.90;;;;;;5043527;28;20768;-73
2023/03/29 09:02:37;;;;;;;1999.90;999.90;;;9.50;99.90;;;;;;5045163;28;20429;-72
2023/03/29 09:05:14;;;;;;;1999.90;999.90;;;9.60;99.90;;;;;;5044960;28;20429;-71
2023/03/29 09:07:41;;;;;;;1999.90;999.90;;;9.60;99.90;;;;;;5046901;28;20436;-75
2023/03/29 09:10:12;;;;;;;1999.90;999.90;;;9.80;99.90;;;;;;5041383;28;20442;-73
2023/03/29 09:12:56;;;;;;;1999.90;999.90;;;10.20;99.90;;;;;;5047754;28;20433;-73
2023/03/29 09:15:30;;;;;;;1999.90;999.90;;;10.20;99.90;;;;;;5045066;28;20461;-74
2023/03/29 09:18:07;;;;;;;1999.90;999.90;;;10.30;99.90;;;;;;5045800;28;20429;-73
2023/03/29 09:20:43;;;;;;;1999.90;999.90;;;10.40;99.90;;;;;;5049070;28;20421;-73
2023/03/29 09:23:25;;;;;;;1999.90;999.90;;;10.60;99.90;;;;;;5043941;28;20437;-71
2023/03/29 09:26:00;;;;;;;1999.90;999.90;;;10.90;99.90;;;;;;5038878;28;20860;-71
2023/03/29 09:28:34;;;;;;;1999.90;999.90;;;11.10;99.90;;;;;;5034270;28;20429;-71
2023/03/29 09:31:09;;;;;;;1999.90;999.90;;;11.30;99.90;;;;;;5045020;28;20422;-73
2023/03/29 09:33:42;;;;;;;1999.90;999.90;;;11.70;99.90;;;;;;5039666;28;20417;-73
2023/03/29 09:36:12;;;;;;;1999.90;999.90;;;11.50;99.90;;;;;;5047366;28;20427;-73
2023/03/29 09:38:43;;;;;;;1999.90;999.90;;;11.30;99.90;;;;;;5036292;28;20433;-72
2023/03/29 09:41:21;;;;;;;1999.90;999.90;;;11.40;99.90;;;;;;5044011;28;20430;-71
2023/03/29 09:43:50;;;;;;;1999.90;999.90;;;11.20;99.90;;;;;;5042552;28;20610;-75
2023/03/29 09:46:23;;;;;;;1999.90;999.90;;;11.20;99.90;;;;;;5038217;28;20524;-70
2023/03/29 09:48:51;;;;;;;1999.90;999.90;;;11.20;99.90;;;;;;5045153;28;20788;-71
2023/03/29 09:51:21;;;;;;;1999.90;999.90;;;11.10;99.90;;;;;;5045210;28;20430;-70
2023/03/29 09:53:48;;;;;;;1999.90;999.90;;;11.20;99.90;;;;;;5043388;28;20433;-72
2023/03/29 09:56:15;;;;;;;1999.90;999.90;;;11.30;99.90;;;;;;5052104;28;20434;-73
2023/03/29 09:58:44;;;;;;;1999.90;999.90;;;11.40;99.90;;;;;;5050577;28;20418;-68
2023/03/29 10:01:14;;;;;;;1999.90;999.90;;;11.60;99.90;;;;;;5051591;28;20433;-72
2023/03/29 10:03:47;;;;;;;1999.90;999.90;;;11.90;99.90;;;;;;5039131;28;20471;-72
2023/03/29 10:06:14;;;;;;;1999.90;999.90;;;11.80;99.90;;;;;;5053881;28;20822;-70
2023/03/29 10:08:45;;;;;;;1999.90;999.90;;;11.70;99.90;;;;;;5053918;28;20475;-72
2023/03/29 10:11:17;;;;;;;1999.90;999.90;;;11.70;99.90;;;;;;5049276;28;21104;-71
2023/03/29 10:13:48;;;;;;;1999.90;999.90;;;11.80;99.90;;;;;;5042606;28;20485;-72
2023/03/29 10:16:20;;;;;;;1999.90;999.90;;;12.00;99.90;;;;;;5047303;28;20429;-71
2023/03/29 10:18:49;;;;;;;1999.90;999.90;;;12.20;99.90;;;;;;5040477;28;20425;-72
2023/03/29 10:21:19;;;;;;;1999.90;999.90;;;12.40;99.90;;;;;;5049067;28;20953;-71
2023/03/29 10:23:45;;;;;;;1999.90;999.90;;;12.60;99.90;;;;;;5047005;28;20434;-72
2023/03/29 10:26:22;;;;;;;1999.90;999.90;;;12.80;99.90;;;;;;5050209;28;20846;-69
2023/03/29 10:28:51;;;;;;;1999.90;999.90;;;13.20;99.90;;;;;;5049182;28;20880;-71
2023/03/29 10:31:19;;;;;;;1999.90;999.90;;;12.90;99.90;;;;;;5053137;28;20430;-72
2023/03/29 10:33:53;;;;;;;1999.90;999.90;;;12.60;99.90;;;;;;5047727;28;20479;-72
2023/03/29 10:36:22;;;;;;;1999.90;999.90;;;11.90;99.90;;;;;;5048433;28;20854;-74
2023/03/29 10:38:50;;;;;;;1999.90;999.90;;;11.90;99.90;;;;;;5045531;28;20465;-72
2023/03/29 10:41:20;;;;;;;1999.90;999.90;;;12.30;99.90;;;;;;5051271;28;20478;-71
2023/03/29 10:43:49;;;;;;;1999.90;999.90;;;12.60;99.90;;;;;;5046613;28;20434;-71
2023/03/29 10:46:21;;;;;;;1999.90;999.90;;;12.70;99.90;;;;;;5049695;28;20522;-72
2023/03/29 10:48:50;;;;;;;1999.90;999.90;;;12.60;99.90;;;;;;5044687;28;20421;-71
2023/03/29 10:51:19;;;;;;;1999.90;999.90;;;12.60;99.90;;;;;;5047576;28;20433;-71
2023/03/29 10:53:47;;;;;;;1999.90;999.90;;;12.90;99.90;;;;;;5047309;28;20483;-71
2023/03/29 10:56:40;;;;;;;1999.90;999.90;;;12.70;99.90;;;;;;5040559;28;20428;-71
2023/03/29 10:59:24;;;;;;;1999.90;999.90;;;12.90;99.90;;;;;;5031199;28;20457;-71
2023/03/29 11:02:25;;;;;;;1999.90;999.90;;;12.90;99.90;;;;;;5051108;28;20438;-78
2023/03/29 11:05:01;;;;;;;1999.90;999.90;;;12.90;99.90;;;;;;5048303;28;20483;-71
2023/03/29 11:07:32;;;;;;;1999.90;999.90;;;13.00;99.90;;;;;;5041397;28;20922;-70
2023/03/29 11:10:19;;;;;;;1999.90;999.90;;;12.90;99.90;;;;;;5043682;28;20442;-70
2023/03/29 11:12:55;;;;;;;1999.90;999.90;;;12.80;99.90;;;;;;5049630;28;20425;-71
2023/03/29 11:15:34;;;;;;;1999.90;999.90;;;12.90;99.90;;;;;;5048344;28;20429;-70
2023/03/29 11:18:15;;;;;;;1999.90;999.90;;;12.80;99.90;;;;;;5050173;28;20436;-70
2023/03/29 11:20:46;;;;;;;1999.90;999.90;;;12.80;99.90;;;;;;5043480;28;20431;-71
2023/03/29 11:23:25;;;;;;;1999.90;999.90;;;13.00;99.90;;;;;;5048763;28;20428;-72
2023/03/29 11:26:08;;;;;;;1999.90;999.90;;;13.30;99.90;;;;;;5045043;28;20483;-72
2023/03/29 11:28:41;;;;;;;1999.90;999.90;;;13.40;99.90;;;;;;5050734;28;20842;-72
2023/03/29 11:31:19;;;;;;;1999.90;999.90;;;13.50;99.90;;;;;;5048148;28;20536;-70
2023/03/29 11:33:56;;;;;;;1999.90;999.90;;;13.30;99.90;;;;;;5044781;28;20433;-72
2023/03/29 11:36:29;;;;;;;1999.90;999.90;;;13.20;99.90;;;;;;5044815;28;20968;-72
2023/03/29 11:39:04;;;;;;;1999.90;999.90;;;13.10;99.90;;;;;;5043101;28;20600;-71
2023/03/29 11:41:33;;;;;;;1999.90;999.90;;;13.10;99.90;;;;;;5042010;28;20440;-71
2023/03/29 11:44:05;;;;;;;1999.90;999.90;;;13.20;99.90;;;;;;5043490;28;20483;-71
2023/03/29 11:46:36;;;;;;;1999.90;999.90;;;13.10;99.90;;;;;;5040213;28;20429;-71
2023/03/29 11:49:10;;;;;;;1999.90;999.90;;;12.90;99.90;;;;;;5043337;28;20462;-71
2023/03/29 11:51:42;;;;;;;1999.90;999.90;;;12.90;99.90;;;;;;5047384;28;20931;-71
2023/03/29 11:54:17;;;;;;;1999.90;999.90;;;12.60;99.90;;;;;;5038920;28;20915;-71
2023/03/29 11:56:47;;;;;;;1999.90;999.90;;;13.10;99.90;;;;;;5046104;28;20433;-71
2023/03/29 11:59:21;;;;;;;1999.90;999.90;;;13.10;99.90;;;;;;5046715;28;20429;-71
2023/03/29 12:01:52;;;;;;;1999.90;999.90;;;12.90;99.90;;;;;;5049128;28;20433;-71
2023/03/29 12:04:24;;;;;;;1999.90;999.90;;;13.20;99.90;;;;;;5047172;28;20504;-74
2023/03/29 12:07:00;;;;;;;1999.90;999.90;;;13.30;99.90;;;;;;5044889;28;20445;-72
2023/03/29 12:09:34;;;;;;;1999.90;999.90;;;13.50;99.90;;;;;;5049790;28;20433;-71
2023/03/29 12:12:08;;;;;;;1999.90;999.90;;;13.80;99.90;;;;;;5043274;28;20461;-71
2023/03/29 12:14:49;;;;;;;1999.90;999.90;;;14.10;99.90;;;;;;5036293;28;20517;-68
2023/03/29 12:17:21;;;;;;;1999.90;999.90;;;13.90;99.90;;;;;;5048485;28;20464;-73
2023/03/29 12:19:55;;;;;;;1999.90;999.90;;;13.30;99.90;;;;;;5050932;28;20883;-71